sensor_id;sensor_type;location;lat;lon;timestamp;temperature;humidity
25914;DHT22;13718;50.922;5.346;2023-08-12T00:00:16;22.00;99.90
25914;DHT22;13718;50.922;5.346;2023-08-12T00:02:43;22.00;99.90
25914;DHT22;13718;50.922;5.346;2023-08-12T00:05:10;22.00;99.90
25914;DHT22;13718;50.922;5.346;2023-08-12T00:07:39;22.00;99.90
25914;DHT22;13718;50.922;5.346;2023-08-12T00:10:10;22.00;99.90
25914;DHT22;13718;50.922;5.346;2023-08-12T00:12:36;22.00;99.90
25914;DHT22;13718;50.922;5.346;2023-08-12T00:15:03;22.00;99.90
25914;DHT22;13718;50.922;5.346;2023-08-12T00:17:29;21.90;99.90
25914;DHT22;13718;50.922;5.346;2023-08-12T00:19:55;21.90;99.90
25914;DHT22;13718;50.922;5.346;2023-08-12T00:22:22;21.80;99.90
25914;DHT22;13718;50.922;5.346;2023-08-12T00:24:47;21.80;99.90
25914;DHT22;13718;50.922;5.346;2023-08-12T00:27:13;21.80;99.90
25914;DHT22;13718;50.922;5.346;2023-08-12T00:29:38;21.80;99.90
25914;DHT22;13718;50.922;5.346;2023-08-12T00:32:04;21.80;99.90
25914;DHT22;13718;50.922;5.346;2023-08-12T00:34:30;21.60;99.90
25914;DHT22;13718;50.922;5.346;2023-08-12T00:36:55;21.60;99.90
25914;DHT22;13718;50.922;5.346;2023-08-12T00:39:21;21.50;99.90
25914;DHT22;13718;50.922;5.346;2023-08-12T00:41:46;21.60;99.90
25914;DHT22;13718;50.922;5.346;2023-08-12T00:44:12;21.50;99.90
25914;DHT22;13718;50.922;5.346;2023-08-12T00:46:40;21.40;99.90
25914;DHT22;13718;50.922;5.346;2023-08-12T00:49:06;21.40;99.90
25914;DHT22;13718;50.922;5.346;2023-08-12T00:51:31;21.40;99.90
25914;DHT22;13718;50.922;5.346;2023-08-12T00:54:02;21.40;99.90
25914;DHT22;13718;50.922;5.346;2023-08-12T00:56:31;21.40;99.90
25914;DHT22;13718;50.922;5.346;2023-08-12T00:58:58;21.50;99.90
25914;DHT22;13718;50.922;5.346;2023-08-12T01:01:23;21.50;99.90
25914;DHT22;13718;50.922;5.346;2023-08-12T01:03:49;21.60;99.90
25914;DHT22;13718;50.922;5.346;2023-08-12T01:06:15;21.60;99.90
25914;DHT22;13718;50.922;5.346;2023-08-12T01:08:40;21.40;99.90
25914;DHT22;13718;50.922;5.346;2023-08-12T01:13:58;21.30;99.90
25914;DHT22;13718;50.922;5.346;2023-08-12T01:16:29;21.30;99.90
25914;DHT22;13718;50.922;5.346;2023-08-12T01:18:56;21.30;99.90
25914;DHT22;13718;50.922;5.346;2023-08-12T01:21:24;21.30;99.90
25914;DHT22;13718;50.922;5.346;2023-08-12T01:23:52;21.30;99.90
25914;DHT22;13718;50.922;5.346;2023-08-12T01:26:17;21.20;99.90
25914;DHT22;13718;50.922;5.346;2023-08-12T01:28:43;21.20;99.90
25914;DHT22;13718;50.922;5.346;2023-08-12T01:31:13;21.20;99.90
25914;DHT22;13718;50.922;5.346;2023-08-12T01:33:49;21.20;99.90
25914;DHT22;13718;50.922;5.346;2023-08-12T01:36:19;21.20;99.90
25914;DHT22;13718;50.922;5.346;2023-08-12T01:38:47;21.20;99.90
25914;DHT22;13718;50.922;5.346;2023-08-12T01:41:16;21.20;99.90
25914;DHT22;13718;50.922;5.346;2023-08-12T01:43:44;21.30;99.90
25914;DHT22;13718;50.922;5.346;2023-08-12T01:46:10;21.30;99.90
25914;DHT22;13718;50.922;5.346;2023-08-12T01:48:35;21.30;99.90
25914;DHT22;13718;50.922;5.346;2023-08-12T01:51:01;21.30;99.90
25914;DHT22;13718;50.922;5.346;2023-08-12T01:53:27;21.20;99.90
25914;DHT22;13718;50.922;5.346;2023-08-12T01:55:52;21.20;99.90
25914;DHT22;13718;50.922;5.346;2023-08-12T01:58:18;21.20;99.90
25914;DHT22;13718;50.922;5.346;2023-08-12T02:00:44;21.30;99.90
25914;DHT22;13718;50.922;5.346;2023-08-12T02:03:09;21.30;99.90
25914;DHT22;13718;50.922;5.346;2023-08-12T02:05:35;21.30;99.90
25914;DHT22;13718;50.922;5.346;2023-08-12T02:08:03;21.20;99.90
25914;DHT22;13718;50.922;5.346;2023-08-12T02:10:29;21.10;99.90
25914;DHT22;13718;50.922;5.346;2023-08-12T02:12:54;21.10;99.90
25914;DHT22;13718;50.922;5.346;2023-08-12T02:15:20;21.10;99.90
25914;DHT22;13718;50.922;5.346;2023-08-12T02:17:45;21.10;99.90
25914;DHT22;13718;50.922;5.346;2023-08-12T02:20:11;21.00;99.90
25914;DHT22;13718;50.922;5.346;2023-08-12T02:22:37;20.90;99.90
25914;DHT22;13718;50.922;5.346;2023-08-12T02:25:02;21.10;99.90
25914;DHT22;13718;50.922;5.346;2023-08-12T02:27:28;21.20;99.90
25914;DHT22;13718;50.922;5.346;2023-08-12T02:29:54;21.20;99.90
25914;DHT22;13718;50.922;5.346;2023-08-12T02:32:19;21.30;99.90
25914;DHT22;13718;50.922;5.346;2023-08-12T02:34:45;21.30;99.90
25914;DHT22;13718;50.922;5.346;2023-08-12T02:37:10;21.20;99.90
25914;DHT22;13718;50.922;5.346;2023-08-12T02:39:38;21.30;99.90
25914;DHT22;13718;50.922;5.346;2023-08-12T02:42:03;21.30;99.90
25914;DHT22;13718;50.922;5.346;2023-08-12T02:44:29;21.30;99.90
25914;DHT22;13718;50.922;5.346;2023-08-12T02:46:54;21.30;99.90
25914;DHT22;13718;50.922;5.346;2023-08-12T02:49:20;21.30;99.90
25914;DHT22;13718;50.922;5.346;2023-08-12T02:51:45;21.20;99.90
25914;DHT22;13718;50.922;5.346;2023-08-12T02:54:11;21.20;99.90
25914;DHT22;13718;50.922;5.346;2023-08-12T02:56:36;21.20;99.90
25914;DHT22;13718;50.922;5.346;2023-08-12T02:59:02;21.20;99.90
25914;DHT22;13718;50.922;5.346;2023-08-12T03:01:28;21.30;99.90
25914;DHT22;13718;50.922;5.346;2023-08-12T03:03:53;21.20;99.90
25914;DHT22;13718;50.922;5.346;2023-08-12T03:06:19;21.20;99.90
25914;DHT22;13718;50.922;5.346;2023-08-12T03:08:46;21.20;99.90
25914;DHT22;13718;50.922;5.346;2023-08-12T03:11:11;21.20;99.90
25914;DHT22;13718;50.922;5.346;2023-08-12T03:13:37;21.20;99.90
25914;DHT22;13718;50.922;5.346;2023-08-12T03:16:02;21.10;99.90
25914;DHT22;13718;50.922;5.346;2023-08-12T03:18:28;21.20;99.90
25914;DHT22;13718;50.922;5.346;2023-08-12T03:20:53;21.10;99.90
25914;DHT22;13718;50.922;5.346;2023-08-12T03:23:19;21.20;99.90
25914;DHT22;13718;50.922;5.346;2023-08-12T03:25:47;21.30;99.90
25914;DHT22;13718;50.922;5.346;2023-08-12T03:28:13;21.30;99.90
25914;DHT22;13718;50.922;5.346;2023-08-12T03:30:39;21.20;99.90
25914;DHT22;13718;50.922;5.346;2023-08-12T03:33:04;21.20;99.90
25914;DHT22;13718;50.922;5.346;2023-08-12T03:35:30;21.20;99.90
25914;DHT22;13718;50.922;5.346;2023-08-12T03:37:55;21.20;99.90
25914;DHT22;13718;50.922;5.346;2023-08-12T03:40:21;21.30;99.90
25914;DHT22;13718;50.922;5.346;2023-08-12T03:42:46;21.30;99.90
25914;DHT22;13718;50.922;5.346;2023-08-12T03:45:12;21.30;99.90
25914;DHT22;13718;50.922;5.346;2023-08-12T03:47:38;21.40;99.90
25914;DHT22;13718;50.922;5.346;2023-08-12T03:50:03;21.40;99.90
25914;DHT22;13718;50.922;5.346;2023-08-12T03:52:29;21.40;99.90
25914;DHT22;13718;50.922;5.346;2023-08-12T03:54:55;21.30;99.90
25914;DHT22;13718;50.922;5.346;2023-08-12T03:57:20;21.40;99.90
25914;DHT22;13718;50.922;5.346;2023-08-12T03:59:46;21.30;99.90
25914;DHT22;13718;50.922;5.346;2023-08-12T04:02:11;21.30;99.90
25914;DHT22;13718;50.922;5.346;2023-08-12T04:04:37;21.30;99.90
25914;DHT22;13718;50.922;5.346;2023-08-12T04:07:02;21.30;99.90
25914;DHT22;13718;50.922;5.346;2023-08-12T04:09:28;21.40;99.90
25914;DHT22;13718;50.922;5.346;2023-08-12T04:11:53;21.50;99.90
25914;DHT22;13718;50.922;5.346;2023-08-12T04:14:19;21.50;99.90
25914;DHT22;13718;50.922;5.346;2023-08-12T04:16:45;21.40;99.90
25914;DHT22;13718;50.922;5.346;2023-08-12T04:19:10;21.40;99.90
25914;DHT22;13718;50.922;5.346;2023-08-12T04:21:36;21.40;99.90
25914;DHT22;13718;50.922;5.346;2023-08-12T04:24:01;21.30;99.90
25914;DHT22;13718;50.922;5.346;2023-08-12T04:26:27;21.40;99.90
25914;DHT22;13718;50.922;5.346;2023-08-12T04:28:53;21.50;99.90
25914;DHT22;13718;50.922;5.346;2023-08-12T04:31:18;21.50;99.90
25914;DHT22;13718;50.922;5.346;2023-08-12T04:33:44;21.60;99.90
25914;DHT22;13718;50.922;5.346;2023-08-12T04:36:09;21.60;99.90
25914;DHT22;13718;50.922;5.346;2023-08-12T04:38:35;21.60;99.90
25914;DHT22;13718;50.922;5.346;2023-08-12T04:41:00;21.60;99.90
25914;DHT22;13718;50.922;5.346;2023-08-12T04:43:26;21.60;99.90
25914;DHT22;13718;50.922;5.346;2023-08-12T04:45:52;21.50;99.90
25914;DHT22;13718;50.922;5.346;2023-08-12T04:48:18;21.50;99.90
25914;DHT22;13718;50.922;5.346;2023-08-12T04:50:43;21.50;99.90
25914;DHT22;13718;50.922;5.346;2023-08-12T04:53:09;21.60;99.90
25914;DHT22;13718;50.922;5.346;2023-08-12T04:55:35;21.60;99.90
25914;DHT22;13718;50.922;5.346;2023-08-12T04:58:01;21.60;99.90
25914;DHT22;13718;50.922;5.346;2023-08-12T05:00:27;21.50;99.90
25914;DHT22;13718;50.922;5.346;2023-08-12T05:02:53;21.50;99.90
25914;DHT22;13718;50.922;5.346;2023-08-12T05:05:19;21.60;99.90
25914;DHT22;13718;50.922;5.346;2023-08-12T05:07:45;21.60;99.90
25914;DHT22;13718;50.922;5.346;2023-08-12T05:10:17;21.50;99.90
25914;DHT22;13718;50.922;5.346;2023-08-12T05:12:43;21.50;99.90
25914;DHT22;13718;50.922;5.346;2023-08-12T05:15:10;21.40;99.90
25914;DHT22;13718;50.922;5.346;2023-08-12T05:17:36;21.50;99.90
25914;DHT22;13718;50.922;5.346;2023-08-12T05:20:01;21.50;99.90
25914;DHT22;13718;50.922;5.346;2023-08-12T05:22:27;21.40;99.90
25914;DHT22;13718;50.922;5.346;2023-08-12T05:24:52;21.40;99.90
25914;DHT22;13718;50.922;5.346;2023-08-12T05:27:18;21.40;99.90
25914;DHT22;13718;50.922;5.346;2023-08-12T05:29:43;21.40;99.90
25914;DHT22;13718;50.922;5.346;2023-08-12T05:32:09;21.50;99.90
25914;DHT22;13718;50.922;5.346;2023-08-12T05:34:34;21.40;99.90
25914;DHT22;13718;50.922;5.346;2023-08-12T05:37:00;21.50;99.90
25914;DHT22;13718;50.922;5.346;2023-08-12T05:39:26;21.30;99.90
25914;DHT22;13718;50.922;5.346;2023-08-12T05:41:51;21.30;99.90
25914;DHT22;13718;50.922;5.346;2023-08-12T05:44:17;21.30;99.90
25914;DHT22;13718;50.922;5.346;2023-08-12T05:46:43;21.30;99.90
25914;DHT22;13718;50.922;5.346;2023-08-12T05:49:08;21.30;99.90
25914;DHT22;13718;50.922;5.346;2023-08-12T05:51:34;21.30;99.90
25914;DHT22;13718;50.922;5.346;2023-08-12T05:54:00;21.30;99.90
25914;DHT22;13718;50.922;5.346;2023-08-12T05:56:26;21.20;99.90
25914;DHT22;13718;50.922;5.346;2023-08-12T05:58:51;21.20;99.90
25914;DHT22;13718;50.922;5.346;2023-08-12T06:01:17;21.10;99.90
25914;DHT22;13718;50.922;5.346;2023-08-12T06:03:43;21.10;99.90
25914;DHT22;13718;50.922;5.346;2023-08-12T06:06:08;21.20;99.90
25914;DHT22;13718;50.922;5.346;2023-08-12T06:08:34;21.30;99.90
25914;DHT22;13718;50.922;5.346;2023-08-12T06:11:00;21.20;99.90
25914;DHT22;13718;50.922;5.346;2023-08-12T06:13:25;21.10;99.90
25914;DHT22;13718;50.922;5.346;2023-08-12T06:15:51;21.00;99.90
25914;DHT22;13718;50.922;5.346;2023-08-12T06:18:16;21.00;99.90
25914;DHT22;13718;50.922;5.346;2023-08-12T06:20:42;21.00;99.90
25914;DHT22;13718;50.922;5.346;2023-08-12T06:23:08;21.10;99.90
25914;DHT22;13718;50.922;5.346;2023-08-12T06:25:33;21.00;99.90
25914;DHT22;13718;50.922;5.346;2023-08-12T06:27:59;21.00;99.90
25914;DHT22;13718;50.922;5.346;2023-08-12T06:30:24;21.20;99.90
25914;DHT22;13718;50.922;5.346;2023-08-12T06:32:50;21.30;99.90
25914;DHT22;13718;50.922;5.346;2023-08-12T06:35:15;21.40;99.90
25914;DHT22;13718;50.922;5.346;2023-08-12T06:37:41;21.30;99.90
25914;DHT22;13718;50.922;5.346;2023-08-12T06:40:07;21.30;99.90
25914;DHT22;13718;50.922;5.346;2023-08-12T06:42:33;21.30;99.90
25914;DHT22;13718;50.922;5.346;2023-08-12T06:44:59;21.30;99.90
25914;DHT22;13718;50.922;5.346;2023-08-12T06:47:26;21.40;99.90
25914;DHT22;13718;50.922;5.346;2023-08-12T06:49:53;21.20;99.90
25914;DHT22;13718;50.922;5.346;2023-08-12T06:52:18;21.20;99.90
25914;DHT22;13718;50.922;5.346;2023-08-12T06:54:44;21.30;99.90
25914;DHT22;13718;50.922;5.346;2023-08-12T06:57:09;21.10;99.90
25914;DHT22;13718;50.922;5.346;2023-08-12T06:59:37;21.10;99.90
25914;DHT22;13718;50.922;5.346;2023-08-12T07:02:03;21.20;99.90
25914;DHT22;13718;50.922;5.346;2023-08-12T07:04:28;21.30;99.90
25914;DHT22;13718;50.922;5.346;2023-08-12T07:06:54;21.30;99.90
25914;DHT22;13718;50.922;5.346;2023-08-12T07:09:20;21.40;99.90
25914;DHT22;13718;50.922;5.346;2023-08-12T07:11:45;21.40;99.90
25914;DHT22;13718;50.922;5.346;2023-08-12T07:14:11;21.30;99.90
25914;DHT22;13718;50.922;5.346;2023-08-12T07:16:36;21.30;99.90
25914;DHT22;13718;50.922;5.346;2023-08-12T07:19:02;21.30;99.90
25914;DHT22;13718;50.922;5.346;2023-08-12T07:21:27;21.50;99.90
25914;DHT22;13718;50.922;5.346;2023-08-12T07:23:53;21.40;99.90
25914;DHT22;13718;50.922;5.346;2023-08-12T07:26:19;21.40;99.90
25914;DHT22;13718;50.922;5.346;2023-08-12T07:28:44;21.50;99.90
25914;DHT22;13718;50.922;5.346;2023-08-12T07:31:10;21.50;99.90
25914;DHT22;13718;50.922;5.346;2023-08-12T07:33:35;21.70;99.90
25914;DHT22;13718;50.922;5.346;2023-08-12T07:36:02;21.70;99.90
25914;DHT22;13718;50.922;5.346;2023-08-12T07:38:27;21.80;99.90
25914;DHT22;13718;50.922;5.346;2023-08-12T07:40:53;21.90;99.90
25914;DHT22;13718;50.922;5.346;2023-08-12T07:43:19;22.10;99.90
25914;DHT22;13718;50.922;5.346;2023-08-12T07:45:45;22.20;99.90
25914;DHT22;13718;50.922;5.346;2023-08-12T07:48:15;22.20;99.90
25914;DHT22;13718;50.922;5.346;2023-08-12T07:50:41;22.40;99.90
25914;DHT22;13718;50.922;5.346;2023-08-12T07:53:06;22.60;99.90
25914;DHT22;13718;50.922;5.346;2023-08-12T07:55:32;22.70;99.90
25914;DHT22;13718;50.922;5.346;2023-08-12T07:57:57;22.80;99.90
25914;DHT22;13718;50.922;5.346;2023-08-12T08:00:23;22.90;99.90
25914;DHT22;13718;50.922;5.346;2023-08-12T08:02:48;22.90;99.90
25914;DHT22;13718;50.922;5.346;2023-08-12T08:05:14;22.90;99.90
25914;DHT22;13718;50.922;5.346;2023-08-12T08:07:39;22.90;99.90
25914;DHT22;13718;50.922;5.346;2023-08-12T08:10:05;23.00;99.90
25914;DHT22;13718;50.922;5.346;2023-08-12T08:12:31;22.90;99.90
25914;DHT22;13718;50.922;5.346;2023-08-12T08:14:56;22.80;99.90
25914;DHT22;13718;50.922;5.346;2023-08-12T08:17:22;22.80;99.90
25914;DHT22;13718;50.922;5.346;2023-08-12T08:19:48;22.60;99.90
25914;DHT22;13718;50.922;5.346;2023-08-12T08:22:13;22.50;99.90
25914;DHT22;13718;50.922;5.346;2023-08-12T08:24:39;22.40;99.90
25914;DHT22;13718;50.922;5.346;2023-08-12T08:27:04;22.40;99.90
25914;DHT22;13718;50.922;5.346;2023-08-12T08:29:30;22.40;99.90
25914;DHT22;13718;50.922;5.346;2023-08-12T08:31:56;22.40;99.90
25914;DHT22;13718;50.922;5.346;2023-08-12T08:34:21;22.30;99.90
25914;DHT22;13718;50.922;5.346;2023-08-12T08:36:47;22.20;99.90
25914;DHT22;13718;50.922;5.346;2023-08-12T08:39:12;22.20;99.90
25914;DHT22;13718;50.922;5.346;2023-08-12T08:41:39;22.30;99.90
25914;DHT22;13718;50.922;5.346;2023-08-12T08:44:07;22.30;99.90
25914;DHT22;13718;50.922;5.346;2023-08-12T08:46:33;22.20;99.90
25914;DHT22;13718;50.922;5.346;2023-08-12T08:48:59;22.20;99.90
25914;DHT22;13718;50.922;5.346;2023-08-12T08:51:30;22.20;99.90
25914;DHT22;13718;50.922;5.346;2023-08-12T08:53:56;22.20;99.90
25914;DHT22;13718;50.922;5.346;2023-08-12T08:56:23;22.30;99.90
25914;DHT22;13718;50.922;5.346;2023-08-12T08:58:49;22.20;99.90
25914;DHT22;13718;50.922;5.346;2023-08-12T09:01:18;22.20;99.90
25914;DHT22;13718;50.922;5.346;2023-08-12T09:03:45;22.20;99.90
25914;DHT22;13718;50.922;5.346;2023-08-12T09:06:11;22.20;99.90
25914;DHT22;13718;50.922;5.346;2023-08-12T09:08:37;22.30;99.90
25914;DHT22;13718;50.922;5.346;2023-08-12T09:11:06;22.30;99.90
25914;DHT22;13718;50.922;5.346;2023-08-12T09:13:32;22.30;99.90
25914;DHT22;13718;50.922;5.346;2023-08-12T09:15:58;22.30;99.90
25914;DHT22;13718;50.922;5.346;2023-08-12T09:18:23;22.30;99.90
25914;DHT22;13718;50.922;5.346;2023-08-12T09:20:50;22.40;99.90
25914;DHT22;13718;50.922;5.346;2023-08-12T09:23:15;22.30;99.90
25914;DHT22;13718;50.922;5.346;2023-08-12T09:25:43;22.30;99.90
25914;DHT22;13718;50.922;5.346;2023-08-12T09:28:12;22.40;99.90
25914;DHT22;13718;50.922;5.346;2023-08-12T09:30:39;22.40;99.90
25914;DHT22;13718;50.922;5.346;2023-08-12T09:33:08;22.40;99.90
25914;DHT22;13718;50.922;5.346;2023-08-12T09:35:37;22.40;99.90
25914;DHT22;13718;50.922;5.346;2023-08-12T09:38:05;22.40;99.90
25914;DHT22;13718;50.922;5.346;2023-08-12T09:40:32;22.50;99.90
25914;DHT22;13718;50.922;5.346;2023-08-12T09:42:58;22.70;99.90
25914;DHT22;13718;50.922;5.346;2023-08-12T09:45:25;22.70;99.90
25914;DHT22;13718;50.922;5.346;2023-08-12T09:47:51;22.60;99.90
25914;DHT22;13718;50.922;5.346;2023-08-12T09:50:17;22.50;99.90
25914;DHT22;13718;50.922;5.346;2023-08-12T09:52:43;22.50;99.90
25914;DHT22;13718;50.922;5.346;2023-08-12T09:55:09;22.70;99.90
25914;DHT22;13718;50.922;5.346;2023-08-12T09:57:36;22.80;99.90
25914;DHT22;13718;50.922;5.346;2023-08-12T10:00:05;23.10;99.90
25914;DHT22;13718;50.922;5.346;2023-08-12T10:02:38;23.20;99.90
25914;DHT22;13718;50.922;5.346;2023-08-12T10:05:05;23.40;99.90
25914;DHT22;13718;50.922;5.346;2023-08-12T10:07:32;23.70;99.90
25914;DHT22;13718;50.922;5.346;2023-08-12T10:09:58;23.90;99.90
25914;DHT22;13718;50.922;5.346;2023-08-12T10:12:24;24.10;99.90
25914;DHT22;13718;50.922;5.346;2023-08-12T10:14:50;24.40;99.90
25914;DHT22;13718;50.922;5.346;2023-08-12T10:17:16;24.60;99.90
25914;DHT22;13718;50.922;5.346;2023-08-12T10:19:46;24.60;99.90
25914;DHT22;13718;50.922;5.346;2023-08-12T10:22:13;24.60;99.90
25914;DHT22;13718;50.922;5.346;2023-08-12T10:24:42;24.60;99.90
25914;DHT22;13718;50.922;5.346;2023-08-12T10:27:08;24.70;99.90
25914;DHT22;13718;50.922;5.346;2023-08-12T10:29:36;25.00;99.90
25914;DHT22;13718;50.922;5.346;2023-08-12T10:32:02;24.90;99.90
25914;DHT22;13718;50.922;5.346;2023-08-12T10:34:27;24.90;99.90
25914;DHT22;13718;50.922;5.346;2023-08-12T10:36:54;24.80;99.90
25914;DHT22;13718;50.922;5.346;2023-08-12T10:39:25;24.60;99.90
25914;DHT22;13718;50.922;5.346;2023-08-12T10:41:51;24.80;99.90
25914;DHT22;13718;50.922;5.346;2023-08-12T10:44:20;25.00;99.90
25914;DHT22;13718;50.922;5.346;2023-08-12T10:46:52;24.90;99.90
25914;DHT22;13718;50.922;5.346;2023-08-12T10:49:20;24.60;99.90
25914;DHT22;13718;50.922;5.346;2023-08-12T10:51:53;24.40;99.90
25914;DHT22;13718;50.922;5.346;2023-08-12T10:54:23;24.10;99.90
25914;DHT22;13718;50.922;5.346;2023-08-12T11:02:28;24.60;99.90
25914;DHT22;13718;50.922;5.346;2023-08-12T11:05:08;24.90;99.90
25914;DHT22;13718;50.922;5.346;2023-08-12T11:07:41;24.80;99.90
25914;DHT22;13718;50.922;5.346;2023-08-12T11:12:36;24.40;99.90
25914;DHT22;13718;50.922;5.346;2023-08-12T11:15:03;24.40;99.90
25914;DHT22;13718;50.922;5.346;2023-08-12T11:17:41;24.40;99.90
25914;DHT22;13718;50.922;5.346;2023-08-12T11:20:09;24.40;99.90
25914;DHT22;13718;50.922;5.346;2023-08-12T11:22:43;24.50;99.90
25914;DHT22;13718;50.922;5.346;2023-08-12T11:25:10;24.60;99.90
25914;DHT22;13718;50.922;5.346;2023-08-12T11:27:41;24.70;99.90
25914;DHT22;13718;50.922;5.346;2023-08-12T11:30:09;24.80;99.90
25914;DHT22;13718;50.922;5.346;2023-08-12T11:32:36;24.80;99.90
25914;DHT22;13718;50.922;5.346;2023-08-12T11:35:03;24.80;99.90
25914;DHT22;13718;50.922;5.346;2023-08-12T11:37:31;25.10;99.90
25914;DHT22;13718;50.922;5.346;2023-08-12T11:39:56;25.40;99.90
25914;DHT22;13718;50.922;5.346;2023-08-12T11:42:22;25.70;99.90
25914;DHT22;13718;50.922;5.346;2023-08-12T11:44:47;25.60;99.90
25914;DHT22;13718;50.922;5.346;2023-08-12T11:47:13;25.60;99.90
25914;DHT22;13718;50.922;5.346;2023-08-12T11:49:38;25.60;99.90
25914;DHT22;13718;50.922;5.346;2023-08-12T11:52:04;25.70;99.90
25914;DHT22;13718;50.922;5.346;2023-08-12T11:54:30;25.80;99.90
25914;DHT22;13718;50.922;5.346;2023-08-12T11:56:57;25.90;99.90
25914;DHT22;13718;50.922;5.346;2023-08-12T11:59:23;25.70;99.90
25914;DHT22;13718;50.922;5.346;2023-08-12T12:01:49;25.40;99.90
25914;DHT22;13718;50.922;5.346;2023-08-12T12:04:15;25.20;99.90
25914;DHT22;13718;50.922;5.346;2023-08-12T12:06:41;25.00;99.90
25914;DHT22;13718;50.922;5.346;2023-08-12T12:09:08;24.80;99.90
25914;DHT22;13718;50.922;5.346;2023-08-12T12:11:38;24.70;99.90
25914;DHT22;13718;50.922;5.346;2023-08-12T12:14:05;24.60;99.90
25914;DHT22;13718;50.922;5.346;2023-08-12T12:16:57;24.50;99.90
25914;DHT22;13718;50.922;5.346;2023-08-12T12:19:23;24.40;99.90
25914;DHT22;13718;50.922;5.346;2023-08-12T12:21:50;24.30;99.90
25914;DHT22;13718;50.922;5.346;2023-08-12T12:24:16;24.30;99.90
25914;DHT22;13718;50.922;5.346;2023-08-12T12:26:43;24.30;99.90
25914;DHT22;13718;50.922;5.346;2023-08-12T12:29:10;24.30;99.90
25914;DHT22;13718;50.922;5.346;2023-08-12T12:31:39;24.20;99.90
25914;DHT22;13718;50.922;5.346;2023-08-12T12:34:05;24.20;99.90
25914;DHT22;13718;50.922;5.346;2023-08-12T12:36:35;24.30;99.90
25914;DHT22;13718;50.922;5.346;2023-08-12T12:39:04;24.30;99.90
25914;DHT22;13718;50.922;5.346;2023-08-12T12:41:30;24.30;99.90
25914;DHT22;13718;50.922;5.346;2023-08-12T12:43:56;24.30;99.90
25914;DHT22;13718;50.922;5.346;2023-08-12T12:46:22;24.30;99.90
25914;DHT22;13718;50.922;5.346;2023-08-12T12:48:47;24.40;99.90
25914;DHT22;13718;50.922;5.346;2023-08-12T12:51:13;24.40;99.90
25914;DHT22;13718;50.922;5.346;2023-08-12T12:53:40;24.40;99.90
25914;DHT22;13718;50.922;5.346;2023-08-12T12:56:06;24.40;99.90
25914;DHT22;13718;50.922;5.346;2023-08-12T12:58:37;24.40;99.90
25914;DHT22;13718;50.922;5.346;2023-08-12T13:01:04;24.40;99.90
25914;DHT22;13718;50.922;5.346;2023-08-12T13:03:30;24.30;99.90
25914;DHT22;13718;50.922;5.346;2023-08-12T13:05:57;24.30;99.90
25914;DHT22;13718;50.922;5.346;2023-08-12T13:08:23;24.30;99.90
25914;DHT22;13718;50.922;5.346;2023-08-12T13:10:48;24.30;99.90
25914;DHT22;13718;50.922;5.346;2023-08-12T13:13:15;24.30;99.90
25914;DHT22;13718;50.922;5.346;2023-08-12T13:15:44;24.40;99.90
25914;DHT22;13718;50.922;5.346;2023-08-12T13:18:10;24.40;99.90
25914;DHT22;13718;50.922;5.346;2023-08-12T13:20:37;24.60;99.90
25914;DHT22;13718;50.922;5.346;2023-08-12T13:23:03;24.70;99.90
25914;DHT22;13718;50.922;5.346;2023-08-12T13:25:31;24.80;99.90
25914;DHT22;13718;50.922;5.346;2023-08-12T13:27:57;24.80;99.90
25914;DHT22;13718;50.922;5.346;2023-08-12T13:30:23;24.80;99.90
25914;DHT22;13718;50.922;5.346;2023-08-12T13:32:49;24.80;99.90
25914;DHT22;13718;50.922;5.346;2023-08-12T13:35:14;24.80;99.90
25914;DHT22;13718;50.922;5.346;2023-08-12T13:37:40;24.80;99.90
25914;DHT22;13718;50.922;5.346;2023-08-12T13:40:07;25.00;99.90
25914;DHT22;13718;50.922;5.346;2023-08-12T13:42:34;24.90;99.90
25914;DHT22;13718;50.922;5.346;2023-08-12T13:44:59;25.00;99.90
25914;DHT22;13718;50.922;5.346;2023-08-12T13:47:25;25.00;99.90
25914;DHT22;13718;50.922;5.346;2023-08-12T13:49:51;25.00;99.90
25914;DHT22;13718;50.922;5.346;2023-08-12T13:52:16;25.10;99.90
25914;DHT22;13718;50.922;5.346;2023-08-12T13:54:42;25.10;99.90
25914;DHT22;13718;50.922;5.346;2023-08-12T13:57:07;25.10;99.90
25914;DHT22;13718;50.922;5.346;2023-08-12T13:59:33;25.20;99.90
25914;DHT22;13718;50.922;5.346;2023-08-12T14:01:58;25.30;99.90
25914;DHT22;13718;50.922;5.346;2023-08-12T14:04:24;25.40;99.90
25914;DHT22;13718;50.922;5.346;2023-08-12T14:06:49;25.40;99.90
25914;DHT22;13718;50.922;5.346;2023-08-12T14:09:15;25.50;99.90
25914;DHT22;13718;50.922;5.346;2023-08-12T14:11:42;25.50;99.90
25914;DHT22;13718;50.922;5.346;2023-08-12T14:14:08;25.60;99.90
25914;DHT22;13718;50.922;5.346;2023-08-12T14:16:33;25.70;99.90
25914;DHT22;13718;50.922;5.346;2023-08-12T14:18:59;25.70;99.90
25914;DHT22;13718;50.922;5.346;2023-08-12T14:21:24;25.70;99.90
25914;DHT22;13718;50.922;5.346;2023-08-12T14:23:50;25.70;99.90
25914;DHT22;13718;50.922;5.346;2023-08-12T14:26:15;25.80;99.90
25914;DHT22;13718;50.922;5.346;2023-08-12T14:28:41;25.80;99.90
25914;DHT22;13718;50.922;5.346;2023-08-12T14:31:07;25.70;99.90
25914;DHT22;13718;50.922;5.346;2023-08-12T14:33:32;25.70;99.90
25914;DHT22;13718;50.922;5.346;2023-08-12T14:35:58;25.80;99.90
25914;DHT22;13718;50.922;5.346;2023-08-12T14:38:24;25.90;99.90
25914;DHT22;13718;50.922;5.346;2023-08-12T14:40:50;25.80;99.90
25914;DHT22;13718;50.922;5.346;2023-08-12T14:43:15;25.70;99.90
25914;DHT22;13718;50.922;5.346;2023-08-12T14:45:41;25.60;99.90
25914;DHT22;13718;50.922;5.346;2023-08-12T14:48:06;25.50;99.90
25914;DHT22;13718;50.922;5.346;2023-08-12T14:50:32;25.60;99.90
25914;DHT22;13718;50.922;5.346;2023-08-12T14:52:58;25.80;99.90
25914;DHT22;13718;50.922;5.346;2023-08-12T14:55:24;25.70;99.90
25914;DHT22;13718;50.922;5.346;2023-08-12T14:57:49;25.60;99.90
25914;DHT22;13718;50.922;5.346;2023-08-12T15:00:15;25.60;99.90
25914;DHT22;13718;50.922;5.346;2023-08-12T15:02:40;25.60;99.90
25914;DHT22;13718;50.922;5.346;2023-08-12T15:05:06;25.60;99.90
25914;DHT22;13718;50.922;5.346;2023-08-12T15:07:32;25.60;99.90
25914;DHT22;13718;50.922;5.346;2023-08-12T15:09:58;25.60;99.90
25914;DHT22;13718;50.922;5.346;2023-08-12T15:12:24;25.60;99.90
25914;DHT22;13718;50.922;5.346;2023-08-12T15:14:50;25.60;99.90
25914;DHT22;13718;50.922;5.346;2023-08-12T15:17:16;25.50;99.90
25914;DHT22;13718;50.922;5.346;2023-08-12T15:19:41;25.50;99.90
25914;DHT22;13718;50.922;5.346;2023-08-12T15:22:07;25.40;99.90
25914;DHT22;13718;50.922;5.346;2023-08-12T15:24:32;25.40;99.90
25914;DHT22;13718;50.922;5.346;2023-08-12T15:26:58;25.30;99.90
25914;DHT22;13718;50.922;5.346;2023-08-12T15:29:24;25.40;99.90
25914;DHT22;13718;50.922;5.346;2023-08-12T15:31:50;25.40;99.90
25914;DHT22;13718;50.922;5.346;2023-08-12T15:34:15;25.40;99.90